sensor_id;sensor_type;location;lat;lon;timestamp;P1;durP1;ratioP1;P2;durP2;ratioP2
27375;SDS011;14844;51.302;6.354;2022-08-03T04:05:34;14.07;;;4.80;;
27375;SDS011;14844;51.302;6.354;2022-08-03T04:08:38;7.65;;;4.07;;
27375;SDS011;14844;51.302;6.354;2022-08-03T04:11:27;7.22;;;3.67;;
27375;SDS011;14844;51.302;6.354;2022-08-03T13:33:41;5.25;;;0.88;;
27375;SDS011;14844;51.302;6.354;2022-08-03T13:36:07;5.75;;;0.70;;
27375;SDS011;14844;51.302;6.354;2022-08-03T13:38:33;4.28;;;0.77;;
27375;SDS011;14844;51.302;6.354;2022-08-03T13:40:59;2.72;;;0.75;;
27375;SDS011;14844;51.302;6.354;2022-08-03T13:43:26;3.45;;;0.70;;
27375;SDS011;14844;51.302;6.354;2022-08-03T13:45:51;2.17;;;0.68;;
27375;SDS011;14844;51.302;6.354;2022-08-03T13:48:17;2.95;;;0.77;;
27375;SDS011;14844;51.302;6.354;2022-08-03T13:50:43;1.95;;;0.60;;
27375;SDS011;14844;51.302;6.354;2022-08-03T13:53:09;4.45;;;0.90;;
27375;SDS011;14844;51.302;6.354;2022-08-03T13:55:34;1.55;;;0.60;;
27375;SDS011;14844;51.302;6.354;2022-08-03T13:58:00;5.45;;;0.80;;
27375;SDS011;14844;51.302;6.354;2022-08-03T14:00:26;5.15;;;0.68;;
27375;SDS011;14844;51.302;6.354;2022-08-03T14:02:53;3.05;;;0.43;;
27375;SDS011;14844;51.302;6.354;2022-08-03T14:05:20;2.75;;;0.57;;
27375;SDS011;14844;51.302;6.354;2022-08-03T14:07:57;6.13;;;0.73;;
27375;SDS011;14844;51.302;6.354;2022-08-03T14:10:24;5.28;;;0.68;;
27375;SDS011;14844;51.302;6.354;2022-08-03T14:12:50;8.07;;;0.95;;
27375;SDS011;14844;51.302;6.354;2022-08-03T14:15:16;14.23;;;1.30;;
27375;SDS011;14844;51.302;6.354;2022-08-03T14:17:42;5.45;;;0.90;;
27375;SDS011;14844;51.302;6.354;2022-08-03T14:20:08;3.97;;;0.77;;
27375;SDS011;14844;51.302;6.354;2022-08-03T14:22:39;4.28;;;1.10;;
27375;SDS011;14844;51.302;6.354;2022-08-03T14:25:06;3.30;;;0.70;;
27375;SDS011;14844;51.302;6.354;2022-08-03T14:27:34;6.20;;;1.00;;
27375;SDS011;14844;51.302;6.354;2022-08-03T14:30:01;5.13;;;0.80;;
27375;SDS011;14844;51.302;6.354;2022-08-03T14:32:30;7.88;;;0.80;;
27375;SDS011;14844;51.302;6.354;2022-08-03T14:35:01;6.47;;;1.02;;
27375;SDS011;14844;51.302;6.354;2022-08-03T14:37:27;2.97;;;0.80;;
27375;SDS011;14844;51.302;6.354;2022-08-03T14:39:55;3.72;;;0.95;;
27375;SDS011;14844;51.302;6.354;2022-08-03T14:42:21;3.88;;;0.70;;
27375;SDS011;14844;51.302;6.354;2022-08-03T14:44:47;4.75;;;0.98;;
27375;SDS011;14844;51.302;6.354;2022-08-03T14:53:19;4.93;;;1.05;;
27375;SDS011;14844;51.302;6.354;2022-08-03T14:55:45;2.60;;;0.90;;
27375;SDS011;14844;51.302;6.354;2022-08-03T14:58:17;4.85;;;0.80;;
27375;SDS011;14844;51.302;6.354;2022-08-03T15:00:57;6.60;;;0.90;;
27375;SDS011;14844;51.302;6.354;2022-08-03T15:03:41;4.60;;;0.68;;
27375;SDS011;14844;51.302;6.354;2022-08-03T15:06:08;6.15;;;0.90;;
27375;SDS011;14844;51.302;6.354;2022-08-03T15:08:33;6.28;;;0.90;;
27375;SDS011;14844;51.302;6.354;2022-08-03T15:11:05;4.40;;;0.80;;
27375;SDS011;14844;51.302;6.354;2022-08-03T15:15:58;3.88;;;0.82;;
27375;SDS011;14844;51.302;6.354;2022-08-03T15:18:26;4.20;;;0.73;;
27375;SDS011;14844;51.302;6.354;2022-08-03T15:20:55;4.95;;;0.88;;
27375;SDS011;14844;51.302;6.354;2022-08-03T15:23:30;4.45;;;0.80;;
27375;SDS011;14844;51.302;6.354;2022-08-03T15:26:25;7.38;;;1.00;;
27375;SDS011;14844;51.302;6.354;2022-08-03T15:28:59;2.78;;;0.85;;
27375;SDS011;14844;51.302;6.354;2022-08-03T15:31:27;3.78;;;1.00;;
27375;SDS011;14844;51.302;6.354;2022-08-03T15:33:56;2.38;;;0.50;;
27375;SDS011;14844;51.302;6.354;2022-08-03T15:36:22;5.82;;;0.80;;
27375;SDS011;14844;51.302;6.354;2022-08-03T15:39:18;6.43;;;0.90;;
27375;SDS011;14844;51.302;6.354;2022-08-03T15:41:46;2.90;;;0.85;;
27375;SDS011;14844;51.302;6.354;2022-08-03T15:44:19;6.45;;;1.10;;
27375;SDS011;14844;51.302;6.354;2022-08-03T15:47:03;2.88;;;0.90;;
27375;SDS011;14844;51.302;6.354;2022-08-03T15:49:35;6.60;;;1.00;;
27375;SDS011;14844;51.302;6.354;2022-08-03T15:55:00;3.38;;;0.70;;
27375;SDS011;14844;51.302;6.354;2022-08-03T15:57:38;7.95;;;0.93;;
27375;SDS011;14844;51.302;6.354;2022-08-03T16:00:07;6.80;;;1.10;;
27375;SDS011;14844;51.302;6.354;2022-08-03T16:02:34;6.43;;;0.90;;
27375;SDS011;14844;51.302;6.354;2022-08-03T16:05:00;4.22;;;0.98;;
27375;SDS011;14844;51.302;6.354;2022-08-03T16:07:29;7.72;;;1.67;;
27375;SDS011;14844;51.302;6.354;2022-08-03T16:10:07;1.77;;;0.70;;
27375;SDS011;14844;51.302;6.354;2022-08-03T16:12:34;3.25;;;0.90;;
27375;SDS011;14844;51.302;6.354;2022-08-03T16:15:01;4.22;;;0.73;;
27375;SDS011;14844;51.302;6.354;2022-08-03T16:17:33;6.53;;;0.90;;
27375;SDS011;14844;51.302;6.354;2022-08-03T16:20:02;3.97;;;0.80;;
27375;SDS011;14844;51.302;6.354;2022-08-03T16:22:28;6.70;;;0.85;;
27375;SDS011;14844;51.302;6.354;2022-08-03T16:24:54;3.03;;;0.80;;
27375;SDS011;14844;51.302;6.354;2022-08-03T16:27:20;4.82;;;0.80;;
27375;SDS011;14844;51.302;6.354;2022-08-03T16:29:54;4.93;;;0.88;;
27375;SDS011;14844;51.302;6.354;2022-08-03T16:32:23;3.10;;;0.88;;
27375;SDS011;14844;51.302;6.354;2022-08-03T16:34:54;3.70;;;1.00;;
27375;SDS011;14844;51.302;6.354;2022-08-03T16:41:22;6.00;;;0.70;;
27375;SDS011;14844;51.302;6.354;2022-08-03T16:44:17;4.38;;;0.75;;
27375;SDS011;14844;51.302;6.354;2022-08-03T16:46:58;5.63;;;1.27;;
27375;SDS011;14844;51.302;6.354;2022-08-03T16:49:24;7.65;;;1.08;;
27375;SDS011;14844;51.302;6.354;2022-08-03T16:51:52;8.23;;;1.00;;
27375;SDS011;14844;51.302;6.354;2022-08-03T16:54:22;3.80;;;0.90;;
27375;SDS011;14844;51.302;6.354;2022-08-03T16:56:54;6.13;;;1.17;;
27375;SDS011;14844;51.302;6.354;2022-08-03T16:59:23;5.28;;;0.90;;
27375;SDS011;14844;51.302;6.354;2022-08-03T17:04:41;4.78;;;0.90;;
27375;SDS011;14844;51.302;6.354;2022-08-03T17:07:18;7.38;;;1.00;;
27375;SDS011;14844;51.302;6.354;2022-08-03T17:09:47;3.42;;;0.80;;
27375;SDS011;14844;51.302;6.354;2022-08-03T17:12:16;2.72;;;0.90;;
27375;SDS011;14844;51.302;6.354;2022-08-03T17:14:56;3.72;;;0.77;;
27375;SDS011;14844;51.302;6.354;2022-08-03T17:17:42;4.53;;;1.00;;
27375;SDS011;14844;51.302;6.354;2022-08-03T17:26:39;13.45;;;1.15;;
27375;SDS011;14844;51.302;6.354;2022-08-03T17:29:11;3.97;;;1.00;;
27375;SDS011;14844;51.302;6.354;2022-08-03T17:31:41;4.72;;;1.10;;
27375;SDS011;14844;51.302;6.354;2022-08-03T17:34:10;2.28;;;0.82;;
27375;SDS011;14844;51.302;6.354;2022-08-03T17:36:36;5.85;;;1.20;;
27375;SDS011;14844;51.302;6.354;2022-08-03T17:39:05;4.13;;;0.93;;
27375;SDS011;14844;51.302;6.354;2022-08-03T17:41:31;5.13;;;0.85;;
27375;SDS011;14844;51.302;6.354;2022-08-03T17:44:02;10.15;;;0.88;;
27375;SDS011;14844;51.302;6.354;2022-08-03T18:29:02;4.28;;;1.10;;
27375;SDS011;14844;51.302;6.354;2022-08-03T19:31:26;6.93;;;2.13;;
27375;SDS011;14844;51.302;6.354;2022-08-03T19:52:32;27.20;;;2.17;;
27375;SDS011;14844;51.302;6.354;2022-08-03T20:06:42;13.43;;;1.80;;
27375;SDS011;14844;51.302;6.354;2022-08-03T20:13:32;7.85;;;1.80;;
27375;SDS011;14844;51.302;6.354;2022-08-03T20:16:02;10.57;;;1.77;;
27375;SDS011;14844;51.302;6.354;2022-08-03T20:18:34;20.70;;;2.10;;
27375;SDS011;14844;51.302;6.354;2022-08-03T20:21:11;17.10;;;2.10;;
27375;SDS011;14844;51.302;6.354;2022-08-03T20:23:49;18.70;;;2.33;;
27375;SDS011;14844;51.302;6.354;2022-08-03T20:26:20;16.42;;;1.95;;
27375;SDS011;14844;51.302;6.354;2022-08-03T20:29:05;15.30;;;2.78;;
27375;SDS011;14844;51.302;6.354;2022-08-03T20:31:39;19.80;;;1.90;;
27375;SDS011;14844;51.302;6.354;2022-08-03T20:34:35;14.23;;;2.20;;
27375;SDS011;14844;51.302;6.354;2022-08-03T20:37:08;13.95;;;2.38;;
27375;SDS011;14844;51.302;6.354;2022-08-03T20:56:32;6.78;;;1.58;;
27375;SDS011;14844;51.302;6.354;2022-08-03T20:59:04;7.82;;;1.83;;
27375;SDS011;14844;51.302;6.354;2022-08-03T21:01:41;10.77;;;1.48;;
27375;SDS011;14844;51.302;6.354;2022-08-03T21:04:20;12.98;;;1.65;;
27375;SDS011;14844;51.302;6.354;2022-08-03T21:07:02;9.50;;;1.95;;
27375;SDS011;14844;51.302;6.354;2022-08-03T21:09:33;14.85;;;2.22;;
27375;SDS011;14844;51.302;6.354;2022-08-03T21:12:13;10.50;;;1.95;;
27375;SDS011;14844;51.302;6.354;2022-08-03T21:14:57;5.88;;;1.33;;
27375;SDS011;14844;51.302;6.354;2022-08-03T21:17:40;6.95;;;1.65;;
27375;SDS011;14844;51.302;6.354;2022-08-03T21:20:11;10.52;;;1.83;;
27375;SDS011;14844;51.302;6.354;2022-08-03T21:22:44;4.63;;;1.50;;
27375;SDS011;14844;51.302;6.354;2022-08-03T21:25:24;9.45;;;1.85;;
27375;SDS011;14844;51.302;6.354;2022-08-03T21:27:57;6.07;;;1.98;;
27375;SDS011;14844;51.302;6.354;2022-08-03T21:30:27;6.75;;;2.05;;
27375;SDS011;14844;51.302;6.354;2022-08-03T21:32:59;11.30;;;1.80;;
27375;SDS011;14844;51.302;6.354;2022-08-03T21:35:25;9.52;;;1.92;;
27375;SDS011;14844;51.302;6.354;2022-08-03T21:37:57;7.20;;;1.63;;
27375;SDS011;14844;51.302;6.354;2022-08-03T21:40:43;7.70;;;1.80;;
27375;SDS011;14844;51.302;6.354;2022-08-03T21:43:10;4.72;;;1.80;;
27375;SDS011;14844;51.302;6.354;2022-08-03T21:45:52;9.88;;;2.15;;
27375;SDS011;14844;51.302;6.354;2022-08-03T21:48:22;7.07;;;1.92;;
27375;SDS011;14844;51.302;6.354;2022-08-03T21:50:54;5.47;;;1.70;;
27375;SDS011;14844;51.302;6.354;2022-08-03T21:53:25;7.57;;;1.95;;
27375;SDS011;14844;51.302;6.354;2022-08-03T21:56:06;5.68;;;1.77;;
27375;SDS011;14844;51.302;6.354;2022-08-03T21:58:54;10.80;;;2.03;;
27375;SDS011;14844;51.302;6.354;2022-08-03T22:01:55;10.25;;;1.80;;
27375;SDS011;14844;51.302;6.354;2022-08-03T22:04:38;7.47;;;1.80;;
27375;SDS011;14844;51.302;6.354;2022-08-03T22:07:16;6.40;;;1.90;;
27375;SDS011;14844;51.302;6.354;2022-08-03T22:09:45;8.27;;;1.98;;
27375;SDS011;14844;51.302;6.354;2022-08-03T22:12:13;6.68;;;1.45;;
27375;SDS011;14844;51.302;6.354;2022-08-03T22:14:40;6.43;;;1.98;;
27375;SDS011;14844;51.302;6.354;2022-08-03T22:17:15;8.38;;;2.17;;
27375;SDS011;14844;51.302;6.354;2022-08-03T22:22:17;5.07;;;1.90;;
27375;SDS011;14844;51.302;6.354;2022-08-03T22:25:04;8.40;;;2.33;;
27375;SDS011;14844;51.302;6.354;2022-08-03T22:27:39;7.18;;;2.03;;
27375;SDS011;14844;51.302;6.354;2022-08-03T22:30:16;10.02;;;1.75;;
27375;SDS011;14844;51.302;6.354;2022-08-03T22:32:51;7.85;;;1.77;;
27375;SDS011;14844;51.302;6.354;2022-08-03T22:35:20;8.52;;;2.13;;
27375;SDS011;14844;51.302;6.354;2022-08-03T22:37:53;7.07;;;1.80;;
27375;SDS011;14844;51.302;6.354;2022-08-03T22:40:29;5.28;;;1.58;;
27375;SDS011;14844;51.302;6.354;2022-08-03T22:43:05;7.57;;;1.65;;
27375;SDS011;14844;51.302;6.354;2022-08-03T22:45:48;7.63;;;1.90;;
27375;SDS011;14844;51.302;6.354;2022-08-03T22:48:30;11.30;;;1.92;;
27375;SDS011;14844;51.302;6.354;2022-08-03T22:51:04;11.27;;;2.17;;
27375;SDS011;14844;51.302;6.354;2022-08-03T22:53:33;7.47;;;1.88;;
27375;SDS011;14844;51.302;6.354;2022-08-03T22:56:08;8.68;;;1.67;;
27375;SDS011;14844;51.302;6.354;2022-08-03T22:58:47;8.65;;;2.08;;
27375;SDS011;14844;51.302;6.354;2022-08-03T23:01:35;6.80;;;2.30;;
27375;SDS011;14844;51.302;6.354;2022-08-03T23:04:05;12.77;;;2.15;;
27375;SDS011;14844;51.302;6.354;2022-08-03T23:06:52;7.75;;;1.77;;
27375;SDS011;14844;51.302;6.354;2022-08-03T23:09:28;10.25;;;1.73;;
27375;SDS011;14844;51.302;6.354;2022-08-03T23:12:01;8.80;;;2.00;;
27375;SDS011;14844;51.302;6.354;2022-08-03T23:15:00;8.13;;;2.28;;
27375;SDS011;14844;51.302;6.354;2022-08-03T23:17:56;7.80;;;2.28;;
27375;SDS011;14844;51.302;6.354;2022-08-03T23:23:50;9.35;;;2.20;;
27375;SDS011;14844;51.302;6.354;2022-08-03T23:26:51;8.77;;;2.15;;
27375;SDS011;14844;51.302;6.354;2022-08-03T23:32:43;4.38;;;1.88;;
27375;SDS011;14844;51.302;6.354;2022-08-03T23:35:25;10.45;;;2.15;;
27375;SDS011;14844;51.302;6.354;2022-08-03T23:38:31;7.35;;;1.90;;
27375;SDS011;14844;51.302;6.354;2022-08-03T23:41:26;4.30;;;2.00;;
27375;SDS011;14844;51.302;6.354;2022-08-03T23:44:13;8.52;;;2.58;;
27375;SDS011;14844;51.302;6.354;2022-08-03T23:46:56;8.57;;;2.40;;
27375;SDS011;14844;51.302;6.354;2022-08-03T23:49:36;6.78;;;2.40;;
